Woodbridge, California
Current Conditions -  °F | °C
As of 6:55 AM on Tuesday 21 Oct 2014 (Local Time) from KSCK Reporting Station
Clear Clear  
Wind Chill: 50°   Ceiling: Unl
Heat Index: 50°   Visibility: 10mi
Dew Point: 45°   Wind: 3mph
Humidity: 83%   Direction: 360°N
Pressure: 30.07"   Gusts: NA
Location:  38.15°N, 121.3°W
Report Text: KSCK 211355Z AUTO 36003KT 10SM CLR 10/07 A3007 RMK AO2 SLP182 T01000072
Loading
Personal Weather Stations






























Interactive Weather Map
Tropical Storm Tracking
New forecast layout! Learn more

10-Day Weather Forecast

Advertisements
Track Severe Weather on mobile